createdAt,value
2022-12-05T00:00:41.502Z,87.68
2022-12-05T00:03:47.612Z,87.93
2022-12-05T00:06:53.317Z,87.90
2022-12-05T00:09:58.882Z,87.99
2022-12-05T00:13:04.722Z,87.96
2022-12-05T00:16:16.404Z,87.90
2022-12-05T00:19:22.791Z,87.75
2022-12-05T00:22:27.029Z,87.77
2022-12-05T00:25:32.756Z,87.94
2022-12-05T00:28:38.407Z,88.04
2022-12-05T00:31:44.057Z,87.93
2022-12-05T00:34:50.122Z,87.80
2022-12-05T00:37:55.612Z,88.07
2022-12-05T00:41:05.443Z,87.92
2022-12-05T00:44:11.838Z,87.93
2022-12-05T00:47:15.798Z,88.04
2022-12-05T00:50:21.452Z,87.96
2022-12-05T00:53:26.932Z,88.01
2022-12-05T00:56:33.738Z,87.82
2022-12-05T00:59:39.173Z,88.06
2022-12-05T01:02:44.880Z,88.05
2022-12-05T01:05:50.474Z,88.06
2022-12-05T01:08:57.757Z,88.10
2022-12-05T01:12:03.267Z,88.11
2022-12-05T01:15:11.239Z,87.84
2022-12-05T01:18:16.925Z,87.67
2022-12-05T01:21:23.307Z,87.69
2022-12-05T01:24:30.118Z,88.09
2022-12-05T01:27:35.621Z,88.11
2022-12-05T01:30:42.207Z,87.90
2022-12-05T01:33:48.854Z,87.91
2022-12-05T01:36:54.279Z,87.74
2022-12-05T01:40:00.044Z,87.78
2022-12-05T01:43:11.661Z,88.08
2022-12-05T01:46:17.174Z,88.07
2022-12-05T01:49:25.155Z,88.18
2022-12-05T01:52:34.172Z,88.05
2022-12-05T01:55:40.208Z,88.07
2022-12-05T01:58:47.051Z,87.85
2022-12-05T02:01:52.700Z,87.83
2022-12-05T02:05:06.584Z,87.96
2022-12-05T02:08:13.337Z,88.10
2022-12-05T02:11:19.116Z,88.15
2022-12-05T02:14:33.328Z,88.18
2022-12-05T02:17:49.261Z,88.10
2022-12-05T02:21:11.679Z,88.21
2022-12-05T02:24:49.922Z,88.19
2022-12-05T02:28:17.252Z,88.10
2022-12-05T02:31:28.744Z,88.13
2022-12-05T02:34:43.126Z,88.15
2022-12-05T02:37:55.371Z,87.94
2022-12-05T02:41:13.068Z,87.88
2022-12-05T02:44:24.759Z,88.16
2022-12-05T02:47:34.817Z,88.09
2022-12-05T02:50:43.393Z,88.26
2022-12-05T02:53:50.365Z,88.11
2022-12-05T02:56:58.583Z,88.08
2022-12-05T03:00:04.540Z,88.02
2022-12-05T03:03:16.238Z,88.08
2022-12-05T03:06:26.746Z,88.04
2022-12-05T03:09:37.047Z,88.13
2022-12-05T03:12:48.085Z,88.05
2022-12-05T03:15:59.062Z,88.02
2022-12-05T03:19:11.472Z,88.14
2022-12-05T03:22:25.726Z,88.03
2022-12-05T03:25:37.413Z,87.81
2022-12-05T03:28:55.761Z,88.15
2022-12-05T03:32:09.714Z,88.38
2022-12-05T03:35:24.070Z,88.23
2022-12-05T03:38:36.275Z,88.33
2022-12-05T03:41:45.248Z,88.41
2022-12-05T03:44:55.565Z,88.43
2022-12-05T03:48:08.728Z,88.44
2022-12-05T03:51:17.181Z,88.48
2022-12-05T03:54:25.775Z,88.38
2022-12-05T03:57:35.758Z,88.35
2022-12-05T04:00:45.226Z,88.47
2022-12-05T04:03:55.933Z,88.40
2022-12-05T04:07:05.586Z,88.29
2022-12-05T04:10:17.568Z,88.28
2022-12-05T04:13:28.083Z,88.24
2022-12-05T04:16:58.439Z,88.34
2022-12-05T04:20:25.800Z,88.35
2022-12-05T04:23:31.963Z,88.09
2022-12-05T04:26:44.291Z,88.08
2022-12-05T04:29:59.486Z,88.24
2022-12-05T04:33:11.138Z,88.38
2022-12-05T04:36:20.613Z,88.32
2022-12-05T04:39:30.531Z,88.33
2022-12-05T04:42:37.847Z,88.32
2022-12-05T04:45:45.363Z,88.45
2022-12-05T04:48:55.371Z,88.43
2022-12-05T04:52:05.253Z,88.22
2022-12-05T04:55:16.351Z,88.20
2022-12-05T04:58:24.442Z,88.36
2022-12-05T05:01:36.094Z,88.31
2022-12-05T05:04:45.571Z,88.23
2022-12-05T05:07:53.890Z,88.36
2022-12-05T05:11:11.592Z,88.25
2022-12-05T05:14:17.042Z,88.44
2022-12-05T05:17:22.486Z,88.34
2022-12-05T05:20:28.139Z,88.40
2022-12-05T05:23:33.580Z,88.44
2022-12-05T05:26:40.615Z,88.31
2022-12-05T05:29:46.747Z,88.19
2022-12-05T05:32:52.593Z,88.22
2022-12-05T05:35:58.142Z,88.38
2022-12-05T05:39:06.801Z,88.36
2022-12-05T05:42:12.308Z,88.29
2022-12-05T05:45:18.559Z,88.20
2022-12-05T05:48:22.689Z,87.99
2022-12-05T05:51:29.624Z,87.62
2022-12-05T05:54:35.100Z,88.07
2022-12-05T05:57:40.595Z,88.35
2022-12-05T06:00:46.218Z,88.22
2022-12-05T06:03:52.450Z,87.96
2022-12-05T06:06:56.458Z,88.03
2022-12-05T06:10:02.079Z,88.15
2022-12-05T06:13:07.723Z,88.31
2022-12-05T06:16:16.479Z,88.38
2022-12-05T06:19:21.972Z,88.50
2022-12-05T06:22:27.523Z,88.46
2022-12-05T06:25:33.072Z,88.46
2022-12-05T06:28:39.553Z,88.58
2022-12-05T06:31:45.354Z,88.64
2022-12-05T06:34:50.950Z,88.43
2022-12-05T06:37:56.404Z,88.44
2022-12-05T06:41:05.428Z,88.59
2022-12-05T06:44:12.410Z,88.41
2022-12-05T06:47:17.855Z,88.57
2022-12-05T06:50:23.507Z,88.44
2022-12-05T06:53:29.364Z,88.37
2022-12-05T06:56:34.813Z,88.42
2022-12-05T06:59:40.257Z,88.61
2022-12-05T07:02:45.862Z,88.46
2022-12-05T07:05:51.459Z,88.46
2022-12-05T07:08:57.009Z,88.54
2022-12-05T07:12:02.559Z,88.40
2022-12-05T07:15:09.597Z,88.52
2022-12-05T07:18:15.294Z,88.62
2022-12-05T07:21:22.317Z,88.52
2022-12-05T07:24:28.236Z,88.58
2022-12-05T07:27:34.653Z,88.61
2022-12-05T07:30:38.617Z,88.88
2022-12-05T07:33:44.373Z,88.85
2022-12-05T07:36:49.923Z,88.93
2022-12-05T07:39:56.497Z,88.79
2022-12-05T07:43:02.215Z,88.87
2022-12-05T07:46:09.340Z,88.97
2022-12-05T07:49:15.880Z,88.87
2022-12-05T07:52:19.817Z,88.83
2022-12-05T07:55:25.264Z,88.98
2022-12-05T07:58:30.957Z,89.01
2022-12-05T08:01:37.035Z,88.95
2022-12-05T08:04:42.527Z,88.84
2022-12-05T08:07:48.029Z,88.74
2022-12-05T08:10:53.627Z,88.79
2022-12-05T08:14:00.168Z,88.84
2022-12-05T08:17:05.955Z,88.79
2022-12-05T08:20:13.515Z,88.96
2022-12-05T08:23:18.999Z,89.00
2022-12-05T08:26:26.323Z,89.14
2022-12-05T08:29:31.784Z,89.05
2022-12-05T08:32:37.284Z,88.92
2022-12-05T08:35:42.760Z,88.58
2022-12-05T08:38:48.601Z,88.54
2022-12-05T08:41:54.086Z,88.49
2022-12-05T08:44:59.717Z,88.78
2022-12-05T08:48:06.055Z,89.02
2022-12-05T08:51:14.310Z,88.90
2022-12-05T08:54:19.922Z,88.64
2022-12-05T08:57:25.367Z,88.51
2022-12-05T09:00:31.837Z,88.54
2022-12-05T09:03:37.412Z,88.82
2022-12-05T09:06:43.695Z,88.83
2022-12-05T09:09:47.665Z,88.76
2022-12-05T09:12:53.623Z,88.85
2022-12-05T09:15:59.111Z,88.89
2022-12-05T09:19:05.672Z,89.05
2022-12-05T09:22:11.195Z,88.93
2022-12-05T09:25:16.737Z,88.90
2022-12-05T09:28:22.192Z,88.73
2022-12-05T09:31:29.456Z,88.94
2022-12-05T09:34:35.540Z,89.29
2022-12-05T09:37:41.100Z,89.38
2022-12-05T09:40:47.179Z,89.43
2022-12-05T09:44:00.574Z,89.73
2022-12-05T09:47:14.739Z,89.60
2022-12-05T09:50:24.014Z,89.64
2022-12-05T09:53:32.025Z,89.52
2022-12-05T09:56:39.272Z,89.68
2022-12-05T09:59:44.819Z,89.80
2022-12-05T10:02:59.994Z,89.83
2022-12-05T10:06:14.865Z,90.08
2022-12-05T10:09:35.771Z,89.87
2022-12-05T10:13:04.258Z,90.09
2022-12-05T10:16:15.457Z,90.05
2022-12-05T10:19:26.827Z,90.11
2022-12-05T10:22:41.899Z,90.08
2022-12-05T10:25:48.320Z,90.32
2022-12-05T10:28:57.252Z,90.02
2022-12-05T10:32:11.827Z,90.17
2022-12-05T10:35:20.715Z,90.40
2022-12-05T10:38:30.963Z,90.39
2022-12-05T10:41:36.797Z,90.51
2022-12-05T10:44:43.002Z,90.60
2022-12-05T10:47:49.896Z,90.55
2022-12-05T10:50:58.104Z,90.70
2022-12-05T10:54:03.961Z,90.92
2022-12-05T10:57:23.560Z,90.70
2022-12-05T11:00:33.056Z,90.62
2022-12-05T11:03:41.660Z,90.90
2022-12-05T11:06:53.459Z,90.93
2022-12-05T11:09:59.511Z,90.96
2022-12-05T11:13:17.699Z,91.02
2022-12-05T11:16:26.707Z,90.88
2022-12-05T11:19:34.952Z,90.92
2022-12-05T11:22:44.449Z,90.79
2022-12-05T11:25:53.505Z,90.88
2022-12-05T11:28:58.943Z,90.93
2022-12-05T11:32:06.748Z,90.93
2022-12-05T11:35:29.916Z,91.07
2022-12-05T11:38:36.003Z,91.20
2022-12-05T11:41:55.013Z,91.07
2022-12-05T11:45:29.543Z,91.11
2022-12-05T11:48:52.700Z,91.22
2022-12-05T11:52:07.057Z,91.08
2022-12-05T11:55:21.287Z,91.10
2022-12-05T11:58:45.863Z,91.05
2022-12-05T12:01:59.796Z,91.02
2022-12-05T12:05:16.568Z,90.96
2022-12-05T12:08:27.678Z,91.04
2022-12-05T12:11:40.668Z,91.07
2022-12-05T12:15:00.934Z,90.99
2022-12-05T12:18:17.307Z,91.12
2022-12-05T12:21:27.447Z,91.14
2022-12-05T12:24:51.505Z,90.96
2022-12-05T12:28:11.143Z,90.83
2022-12-05T12:31:31.642Z,90.87
2022-12-05T12:34:57.898Z,90.88
2022-12-05T12:38:28.350Z,90.86
2022-12-05T12:42:03.803Z,90.98
2022-12-05T12:45:49.319Z,90.94
2022-12-05T12:49:20.315Z,90.87
2022-12-05T12:52:29.262Z,90.98
2022-12-05T12:55:46.996Z,90.89
2022-12-05T12:59:03.127Z,90.52
2022-12-05T13:02:14.529Z,90.53
2022-12-05T13:05:29.331Z,90.49
2022-12-05T13:08:41.463Z,90.57
2022-12-05T13:11:50.622Z,90.59
2022-12-05T13:15:01.971Z,90.63
2022-12-05T13:18:12.744Z,90.38
2022-12-05T13:21:19.256Z,90.30
2022-12-05T13:24:27.115Z,90.25
2022-12-05T13:27:32.639Z,90.19
2022-12-05T13:30:57.930Z,90.30
2022-12-05T13:34:03.731Z,90.13
2022-12-05T13:37:37.916Z,90.01
2022-12-05T13:41:11.765Z,90.12
2022-12-05T13:44:28.036Z,90.16
2022-12-05T13:47:39.729Z,89.95
2022-12-05T13:50:52.069Z,89.71
2022-12-05T13:54:05.967Z,89.93
2022-12-05T13:57:49.515Z,89.66
2022-12-05T14:01:36.979Z,89.48
2022-12-05T14:04:54.207Z,89.64
2022-12-05T14:08:03.764Z,89.33
2022-12-05T14:11:13.932Z,89.56
2022-12-05T14:14:58.167Z,89.46
2022-12-05T14:18:15.694Z,89.46
2022-12-05T14:21:36.400Z,89.32
2022-12-05T14:24:50.940Z,89.17
2022-12-05T14:28:03.297Z,88.80
2022-12-05T14:31:27.289Z,88.68
2022-12-05T14:34:36.119Z,88.76
2022-12-05T14:37:49.890Z,89.00
2022-12-05T14:41:06.150Z,88.89
2022-12-05T14:44:20.530Z,88.68
2022-12-05T14:47:28.884Z,88.64
2022-12-05T14:50:45.496Z,88.64
2022-12-05T14:53:51.804Z,88.51
2022-12-05T14:57:04.007Z,88.16
2022-12-05T15:00:18.939Z,88.20
2022-12-05T15:03:30.080Z,88.17
2022-12-05T15:06:38.929Z,87.69
2022-12-05T15:09:52.279Z,87.80
2022-12-05T15:13:01.974Z,87.88
2022-12-05T15:16:16.785Z,88.13
2022-12-05T15:19:34.629Z,88.28
2022-12-05T15:22:40.486Z,88.06
2022-12-05T15:25:47.060Z,87.62
2022-12-05T15:29:05.956Z,87.34
2022-12-05T15:32:22.271Z,87.42
2022-12-05T15:35:32.480Z,87.38
2022-12-05T15:38:39.612Z,87.56
2022-12-05T15:41:45.109Z,87.93
2022-12-05T15:44:50.667Z,87.82
2022-12-05T15:47:58.064Z,87.49
2022-12-05T15:51:04.264Z,87.30
2022-12-05T15:54:14.289Z,87.14
2022-12-05T15:57:26.176Z,87.20
2022-12-05T16:00:34.235Z,87.31
2022-12-05T16:03:46.633Z,87.20
2022-12-05T16:06:55.980Z,86.88
2022-12-05T16:10:03.272Z,86.73
2022-12-05T16:13:14.427Z,86.87
2022-12-05T16:16:23.446Z,87.04
2022-12-05T16:19:30.271Z,86.82
2022-12-05T16:22:36.476Z,86.73
2022-12-05T16:25:41.958Z,86.84
2022-12-05T16:28:59.728Z,86.80
2022-12-05T16:32:15.550Z,86.83
2022-12-05T16:35:35.133Z,86.71
2022-12-05T16:38:43.309Z,86.58
2022-12-05T16:41:49.811Z,86.39
2022-12-05T16:45:02.272Z,85.93
2022-12-05T16:48:18.012Z,86.21
2022-12-05T16:51:26.115Z,86.44
2022-12-05T16:54:31.671Z,86.70
2022-12-05T16:57:37.423Z,86.77
2022-12-05T17:00:42.973Z,86.74
2022-12-05T17:03:48.983Z,86.92
2022-12-05T17:06:54.816Z,86.59
2022-12-05T17:10:00.410Z,86.33
2022-12-05T17:13:06.504Z,86.54
2022-12-05T17:16:12.241Z,86.52
2022-12-05T17:19:17.952Z,86.89
2022-12-05T17:22:23.898Z,87.20
2022-12-05T17:25:36.342Z,87.53
2022-12-05T17:28:42.104Z,87.30
2022-12-05T17:31:47.887Z,87.17
2022-12-05T17:34:53.540Z,86.54
2022-12-05T17:37:59.089Z,86.71
2022-12-05T17:41:07.266Z,86.85
2022-12-05T17:44:15.591Z,86.88
2022-12-05T17:47:21.269Z,86.83
2022-12-05T17:50:29.376Z,86.85
2022-12-05T17:53:34.995Z,86.85
2022-12-05T17:56:40.576Z,86.80
2022-12-05T17:59:46.275Z,86.80
2022-12-05T18:02:52.760Z,86.67
2022-12-05T18:05:58.762Z,86.99
2022-12-05T18:09:07.147Z,86.81
2022-12-05T18:12:12.930Z,86.86
2022-12-05T18:15:19.266Z,86.99
2022-12-05T18:18:23.416Z,87.07
2022-12-05T18:21:28.965Z,87.08
2022-12-05T18:24:34.727Z,87.16
2022-12-05T18:27:40.678Z,87.34
2022-12-05T18:30:46.227Z,87.12
2022-12-05T18:33:51.922Z,86.89
2022-12-05T18:36:57.428Z,87.08
2022-12-05T18:40:03.315Z,87.25
2022-12-05T18:43:08.830Z,87.39
2022-12-05T18:46:14.555Z,87.30
2022-12-05T18:49:20.087Z,87.27
2022-12-05T18:52:25.791Z,87.23
2022-12-05T18:55:57.938Z,87.17
2022-12-05T18:58:58.951Z,87.27
2022-12-05T19:02:05.528Z,87.44
2022-12-05T19:05:11.444Z,87.62
2022-12-05T19:08:17.020Z,87.46
2022-12-05T19:11:23.153Z,87.31
2022-12-05T19:14:33.234Z,87.24
2022-12-05T19:17:38.857Z,87.34
2022-12-05T19:20:52.435Z,87.53
2022-12-05T19:23:58.760Z,87.40
2022-12-05T19:27:02.774Z,87.62
2022-12-05T19:30:10.806Z,87.47
2022-12-05T19:33:16.535Z,87.07
2022-12-05T19:36:24.260Z,87.23
2022-12-05T19:39:30.272Z,87.59
2022-12-05T19:42:36.234Z,87.66
2022-12-05T19:45:42.141Z,87.36
2022-12-05T19:48:48.057Z,87.28
2022-12-05T19:51:54.189Z,87.44
2022-12-05T19:54:59.988Z,87.45
2022-12-05T19:58:05.436Z,87.47
2022-12-05T20:01:13.435Z,87.73
2022-12-05T20:04:19.265Z,88.04
2022-12-05T20:07:24.952Z,88.03
2022-12-05T20:10:30.544Z,87.86
2022-12-05T20:13:52.527Z,87.99
2022-12-05T20:16:58.265Z,88.03
2022-12-05T20:20:04.848Z,88.02
2022-12-05T20:23:10.413Z,87.84
2022-12-05T20:26:21.081Z,87.89
2022-12-05T20:29:26.796Z,88.08
2022-12-05T20:32:32.306Z,88.11
2022-12-05T20:35:39.439Z,87.98
2022-12-05T20:38:45.785Z,87.80
2022-12-05T20:41:50.222Z,87.91
2022-12-05T20:44:55.812Z,87.99
2022-12-05T20:48:01.875Z,88.20
2022-12-05T20:51:09.469Z,88.42
2022-12-05T20:54:18.403Z,88.25
2022-12-05T20:57:23.922Z,88.30
2022-12-05T21:00:29.425Z,88.21
2022-12-05T21:03:35.668Z,87.97
2022-12-05T21:06:43.829Z,88.13
2022-12-05T21:09:49.423Z,88.21
2022-12-05T21:12:55.075Z,88.05
2022-12-05T21:16:02.438Z,88.11
2022-12-05T21:19:08.958Z,88.16
2022-12-05T21:22:14.590Z,87.98
2022-12-05T21:25:20.138Z,87.95
2022-12-05T21:28:25.580Z,88.08
2022-12-05T21:31:33.058Z,88.27
2022-12-05T21:34:38.533Z,88.26
2022-12-05T21:37:44.180Z,88.18
2022-12-05T21:40:49.556Z,88.18
2022-12-05T21:43:56.180Z,88.16
2022-12-05T21:47:01.646Z,88.19
2022-12-05T21:50:08.852Z,87.99
2022-12-05T21:53:14.329Z,88.15
2022-12-05T21:56:22.983Z,88.13
2022-12-05T21:59:32.447Z,87.99
2022-12-05T22:02:38.280Z,88.08
2022-12-05T22:05:43.927Z,88.17
2022-12-05T22:08:49.503Z,88.00
2022-12-05T22:11:54.899Z,88.14
2022-12-05T22:15:00.390Z,88.05
2022-12-05T22:18:06.299Z,88.28
2022-12-05T22:21:14.565Z,88.01
2022-12-05T22:24:20.110Z,87.83
2022-12-05T22:27:25.779Z,87.94
2022-12-05T22:30:31.318Z,88.22
2022-12-05T22:33:37.779Z,88.47
2022-12-05T22:36:43.339Z,88.36
2022-12-05T22:39:48.888Z,88.36
2022-12-05T22:42:54.301Z,88.21
2022-12-05T22:46:03.914Z,88.21
2022-12-05T22:49:11.572Z,88.12
2022-12-05T22:52:17.130Z,88.30
2022-12-05T22:55:23.086Z,88.21
2022-12-05T22:58:28.637Z,88.38
2022-12-05T23:01:35.555Z,88.58
2022-12-05T23:04:41.271Z,88.37
2022-12-05T23:07:47.069Z,88.48
2022-12-05T23:10:52.660Z,88.52
2022-12-05T23:14:02.310Z,88.45
2022-12-05T23:17:08.283Z,88.20
2022-12-05T23:20:14.356Z,88.33
2022-12-05T23:23:19.892Z,88.33
2022-12-05T23:26:28.307Z,88.37
2022-12-05T23:29:33.857Z,88.36
2022-12-05T23:32:39.407Z,88.37
2022-12-05T23:35:44.955Z,88.44
2022-12-05T23:38:50.920Z,88.72
2022-12-05T23:41:56.463Z,88.77
2022-12-05T23:45:02.013Z,88.86
2022-12-05T23:48:07.768Z,88.64
2022-12-05T23:51:15.349Z,88.69
2022-12-05T23:54:21.015Z,88.50
2022-12-05T23:57:26.667Z,88.44
